Contact Us:
Email: info@sawbill.com
Phone: (218)663-7150
Fax: (218)663-7980
Mail: 4620 Sawbill Trail
Box 2129
Tofte, MN 55615


Powered by
Movable Type 3.15
 
Sawbill Weather History Archives: June 2013
Current Sawbill Weather History | « May 2013 | July 2013 »


Date

High
Temperature

Low
Temperature

Barometric
Pressure

Relative
Humidity 7AM

9 AM
Temperature

Moisture

Snow

6/30/13 78 52 30.48 78% 59 0
6/29/13 70 53 30.45 77% 54 0
6/28/13 70 58 30.30 71% 60 .34"
6/27/13 76 60 30.06 93% 62 .38"
6/26/13 73 58 30.15 93% 60 .55"
6/25/13 82 57 30.12 78% 60 0
6/24/13 84 61 30.24 73% 67 0
6/23/13 69 58 30.24 86% 58 .13"
6/22/13 61 58 30.24 98% 59 .1"
6/21/13 68 58 30.50 96% 58 .3"
6/20/13 65 59 30.36 98% 60 .25"
6/19/13 72 56 30.45 98% 62 .99"
6/18/13 68 40 30.42 57% 55 0
6/17/13 62 38 30.50 70% 39 0
6/16/13 72 50 30.33 73% 50 .06"
6/15/13 66 51 30.15 75% 52 .02"
6/14/13 71 45 30.27 78% 50 .06"
6/13/13 72 44 30.50 65% 45 0
6/12/13 73 53 30.47 56% 57 0
6/11/13 72 51 30.50 81% 53 0
6/10/13 67 54 30.24 87% 55 .07"
6/9/13 66 47 30.21 92% 54 .27"
6/8/13 70 43 30.39 66% 47 0
6/7/13 67 38 30.36 47% 59 Trace
6/6/13 59 38 30.32 83% 47 0
6/5/13 55 46 30.42 75% 47 Trace
6/4/13 60 39 30.47 54% 46 0
6/2/13 56 35 30.39 74% 37 0
6/1/13 51 39 30.36 63% 40 Trace
 


Home I Trip Planning I Rentals and Outfitting I Reservations I Campgrounds I Sawbill Store I Sawbill News I Contact

© 1997 - 2017, Sawbill Canoe Outfitters, Inc. I Privacy Policy